Campiña-Non è richiesta alcuna attenzione speciale.   -   Non ci sono nessun avvisi

Nearby METAR Reports

 

LEZL - Sevilla, Spain
Distance from station: ENE 8km
Dati ricevuti: 29/01/2020 12:00
Parz. nuvoloso
Parz. nuvoloso
 Vento da NNE
Vento: NNE 11 km/h
Temperatura: 13°C
P.to Rugiada: 12°C
Umidità: 94%
Barometro: 1027 hPa
Clouds: Parz. nuvoloso
Visibility: 8 km
Cloud details: Parz. nuvoloso 152 m
2020/01/29 11:00 LEZL 291100Z 03006KT 8000 SCT005 13/12 Q1027 NOSIG
LEMO - Morón, Spain
Distance from station: SE 43km
Dati ricevuti: 29/01/2020 12:00
Sereno
Sereno
 Vento da NE
Vento: NE 13 km/h
Temperatura: 16°C
P.to Rugiada: 11°C
Umidità: 72%
Barometro: 1026 hPa
Summary: Sereno
Visibility: greater than 10 km
2020/01/29 11:00 LEMO 291100Z 05007KT CAVOK 16/11 Q1026 NOSIG
LEJR - Jeréz, Spain
Distance from station: S 71km
Dati ricevuti: 29/01/2020 12:00
Patches of fog, Mist, Few clouds
Patches of fog, Mist, Few clouds
 Vento da NO
Vento: NO 9 km/h
Temperatura: 14°C
P.to Rugiada: 12°C
Umidità: 88%
Barometro: 1027 hPa
Summary: Patches of fog, Mist
Clouds: Few Clouds
Visibility: 5 km
Cloud details: Few Clouds 1067 m
2020/01/29 11:00 LEJR 291100Z 31005KT 280V350 5000 BCFG BR FEW035 14/12 Q1027
 
LERT - Rota, Spain
Distance from station: SSO 89km
Dati ricevuti: 29/01/2020 12:00
Parz. nuvoloso
Parz. nuvoloso
 Vento da NNE
Vento: NNE 6 km/h
Temperatura: 14°C
P.to Rugiada: 12°C
Umidità: 88%
Barometro: 1027 hPa
Clouds: Parz. nuvoloso
Visibility: 9 km
2020/01/29 11:00 LERT 291100Z 03003KT 360V060 9000 NSC 14/12 Q1027 NOSIG
LEMG - Málaga, Spain
Distance from station: ESE 157km
Dati ricevuti: 29/01/2020 12:00
Sereno
Sereno
 Vento da O
Vento: O 9 km/h
Temperatura: 18°C
P.to Rugiada: 10°C
Umidità: 60%
Barometro: 1025 hPa
Summary: Sereno
Visibility: greater than 10 km
2020/01/29 11:00 LEMG 291100Z 27005KT 170V320 CAVOK 18/10 Q1025 NOSIG
LEBA - Córdoba, Spain
Distance from station: ENE 115km
Dati ricevuti: 29/01/2020 12:00
Mist, Parz. nuvoloso
Mist, Parz. nuvoloso
 Vento da ENE
Vento: ENE 9 km/h
Temperatura: 12°C
P.to Rugiada: 11°C
Umidità: 94%
Barometro: 1027 hPa
Summary: Mist
Clouds: Parz. nuvoloso
Visibility: 5 km
2020/01/29 11:00 LEBA 291100Z 07005KT 5000 BR NSC 12/11 Q1027
 
LEGR - Granada, Spain
Distance from station: E 198km
Dati ricevuti: 29/01/2020 12:15
Parz. nuvoloso
Parz. nuvoloso
 Vento da calm
Vento: Calma
Temperatura: 7°C
P.to Rugiada: 7°C
Umidità: 100%
Barometro: 1027 hPa
Clouds: Parz. nuvoloso
Visibility: 6 km
Cloud details: Parz. nuvoloso 30 m
2020/01/29 11:15 LEGR 291115Z 00000KT 6000 SCT001 07/07 Q1027
LEAM - Almería, Spain
Distance from station: E 326km
Dati ricevuti: 29/01/2020 12:00
Molto nuvoloso
Molto nuvoloso
 Vento da SSO
Vento: SSO 6 km/h
Temperatura: 12°C
P.to Rugiada: 11°C
Umidità: 94%
Barometro: 1025 hPa
Clouds: Molto nuvoloso
Visibility: 7 km
Cloud details: Molto nuvoloso 61 m
2020/01/29 11:00 LEAM 291100Z 20003KT 170V240 7000 BKN002 12/11 Q1025
LEMD - Madrid/Barajas, Spain
Distance from station: NNE 402km
Dati ricevuti: 29/01/2020 12:00
Molto nuvoloso
Molto nuvoloso
 Vento da SO
Vento: SO 11 km/h
Temperatura: 12°C
P.to Rugiada: 10°C
Umidità: 88%
Barometro: 1025 hPa
Clouds: Molto nuvoloso
Visibility: 10 km
Cloud details: Molto nuvoloso 396 m
2020/01/29 11:00 LEMD 291100Z 22006KT 170V270 9999 BKN013 12/10 Q1025 NOSIG
 
LEVD - Valladolid, Spain
Distance from station: N 492km
Dati ricevuti: 29/01/2020 12:00
Pioviggine, Molto nuvoloso
Pioviggine, Molto nuvoloso
 Vento da SO
Vento: SO 20 km/h
Temperatura: 10°C
Temperatura Vento: 7°C
P.to Rugiada: 9°C
Umidità: 94%
Barometro: 1024 hPa
Summary: Pioviggine
Clouds: Molto nuvoloso
Visibility: 10 km
Cloud details: Molto nuvoloso 183 m
Molto nuvoloso 671 m
2020/01/29 11:00 LEVD 291100Z 22011KT 9999 -RA BKN006 BKN022 10/09 Q1024
LEBL - Barcelona, Spain
Distance from station: NE 816km
Dati ricevuti: 29/01/2020 12:00
Molto nuvoloso
Molto nuvoloso
 Vento da NNO
Vento: NNO 6 km/h
Temperatura: 13°C
P.to Rugiada: 8°C
Umidità: 72%
Barometro: 1022 hPa
Clouds: Molto nuvoloso
Visibility: 10 km
Cloud details: Molto nuvoloso 1372 m
2020/01/29 11:00 LEBL 291100Z 34003KT 260V040 9999 BKN045 13/08 Q1022 NOSIG
LEVC - Valencia, Spain
Distance from station: ENE 535km
Dati ricevuti: 29/01/2020 12:00
Few Clouds
Few Clouds
 Vento da O
Vento: O 22 km/h
Temperatura: 20°C
P.to Rugiada: 11°C
Umidità: 56%
Barometro: 1023 hPa
Clouds: Few Clouds
Visibility: 10 km
Cloud details: Few Clouds 914 m
2020/01/29 11:00 LEVC 291100Z 26012KT 9999 FEW030 20/11 Q1023 NOSIG